Time;durP1;ratioP1;P1;durP2;ratioP2;P2;SDS_P1;SDS_P2;PMS_P1;PMS_P2;Temp;Humidity;BMP_temperature;BMP_pressure;BME280_temperature;BME280_humidity;BME280_pressure;Samples;Min_cycle;Max_cycle;Signal;HPM_P1;HPM_P2
2022/01/12 00:01:39;;;;;;;63.55;33.13;;;-3.60;99.90;;;;;;5031748;28;20032;-56
2022/01/12 00:04:04;;;;;;;66.18;32.53;;;-3.70;99.90;;;;;;5031890;28;20021;-55
2022/01/12 00:06:30;;;;;;;67.65;32.53;;;-3.70;99.90;;;;;;5030176;28;20037;-55
2022/01/12 00:08:59;;;;;;;58.83;29.98;;;-3.70;99.90;;;;;;5031713;28;20025;-54
2022/01/12 00:11:24;;;;;;;65.00;32.05;;;-3.70;99.90;;;;;;5030446;28;20527;-54
2022/01/12 00:13:51;;;;;;;57.47;31.30;;;-3.70;99.90;;;;;;5031546;28;20053;-55
2022/01/12 00:16:17;;;;;;;61.10;31.23;;;-3.80;99.90;;;;;;5030403;28;20046;-53
2022/01/12 00:18:45;;;;;;;62.97;31.38;;;-3.70;99.90;;;;;;5031315;28;20017;-55
2022/01/12 00:21:14;;;;;;;62.25;31.90;;;-3.70;99.90;;;;;;5031454;28;20041;-56
2022/01/12 00:23:40;;;;;;;60.22;31.60;;;-3.80;99.90;;;;;;5031047;28;20033;-51
2022/01/12 00:26:27;;;;;;;61.92;29.75;;;-3.80;99.90;;;;;;5031106;28;20040;-53
2022/01/12 00:34:27;;;;;;;63.88;30.25;;;-3.80;99.90;;;;;;5031636;28;20041;-56
2022/01/12 00:36:53;;;;;;;67.45;31.20;;;-3.80;99.90;;;;;;5031274;28;20465;-56
2022/01/12 00:39:19;;;;;;;63.22;32.95;;;-3.80;99.90;;;;;;5031506;28;20025;-52
2022/01/12 00:41:45;;;;;;;60.53;28.13;;;-3.80;99.90;;;;;;5029994;28;20449;-56
2022/01/12 00:44:21;;;;;;;61.55;30.13;;;-3.90;99.90;;;;;;5031219;28;20017;-55
2022/01/12 00:46:47;;;;;;;57.30;28.98;;;-3.90;99.90;;;;;;5031103;28;20025;-54
2022/01/12 00:49:12;;;;;;;60.15;29.85;;;-3.90;99.90;;;;;;5031493;28;20026;-56
2022/01/12 00:51:39;;;;;;;65.15;31.50;;;-3.90;99.90;;;;;;5031126;28;20021;-52
2022/01/12 00:54:06;;;;;;;61.75;30.23;;;-4.00;99.90;;;;;;5035162;28;20044;-52
2022/01/12 00:56:32;;;;;;;68.70;31.13;;;-4.00;99.90;;;;;;5034923;28;20025;-55
2022/01/12 00:58:58;;;;;;;60.03;30.90;;;-4.00;99.90;;;;;;5035109;28;20431;-53
2022/01/12 01:01:24;;;;;;;58.17;29.60;;;-4.00;99.90;;;;;;5035157;28;20463;-53
2022/01/12 01:03:51;;;;;;;56.92;29.63;;;-4.10;99.90;;;;;;5034949;28;20029;-53
2022/01/12 01:06:17;;;;;;;63.33;31.77;;;-4.10;99.90;;;;;;5033333;28;20453;-55
2022/01/12 01:08:44;;;;;;;61.63;31.20;;;-4.20;99.90;;;;;;5034920;28;20053;-56
2022/01/12 01:11:10;;;;;;;68.60;30.45;;;-4.20;99.90;;;;;;5034860;28;20441;-54
2022/01/12 01:13:44;;;;;;;60.38;30.77;;;-4.30;99.90;;;;;;5034699;28;20033;-52
2022/01/12 01:16:22;;;;;;;61.20;31.73;;;-4.30;99.90;;;;;;5034424;28;20049;-55
2022/01/12 01:27:01;;;;;;;71.32;31.13;;;-4.40;99.90;;;;;;5034534;28;20090;-54
2022/01/12 01:29:27;;;;;;;64.18;31.77;;;-4.40;99.90;;;;;;5034528;28;20021;-55
2022/01/12 01:31:53;;;;;;;69.63;32.25;;;-4.40;99.90;;;;;;5034592;28;20031;-55
2022/01/12 01:34:19;;;;;;;66.43;31.73;;;-4.50;99.90;;;;;;5033381;28;20119;-54
2022/01/12 01:36:50;;;;;;;62.47;31.50;;;-4.50;99.90;;;;;;5034217;28;20026;-54
2022/01/12 01:39:19;;;;;;;60.92;30.90;;;-4.50;99.90;;;;;;5034554;28;20053;-52
2022/01/12 01:41:55;;;;;;;67.38;32.08;;;-4.60;99.90;;;;;;5034184;28;20029;-55
2022/01/12 01:53:17;;;;;;;62.70;31.23;;;-4.60;99.90;;;;;;5032859;28;20026;-53
2022/01/12 01:55:22;;;;;;;60.25;30.65;;;-4.70;99.90;;;;;;5034159;28;20125;-54
2022/01/12 01:57:48;;;;;;;63.85;30.63;;;-4.70;99.90;;;;;;5033777;28;20133;-55
2022/01/12 02:00:18;;;;;;;56.25;29.30;;;-4.70;99.90;;;;;;5034026;28;20025;-55
2022/01/12 02:02:45;;;;;;;62.42;29.52;;;-4.80;99.90;;;;;;5032655;28;20075;-52
2022/01/12 02:05:12;;;;;;;57.97;29.85;;;-4.80;99.90;;;;;;5033284;28;20030;-52
2022/01/12 02:07:38;;;;;;;59.22;28.70;;;-4.80;99.90;;;;;;5032479;28;20026;-55
2022/01/12 02:10:04;;;;;;;56.72;27.15;;;-4.90;99.90;;;;;;5033961;28;20104;-53
2022/01/12 02:12:30;;;;;;;57.70;27.23;;;-5.00;99.90;;;;;;5033628;28;20043;-56
2022/01/12 02:14:57;;;;;;;52.08;26.00;;;-5.00;99.90;;;;;;5033498;28;20095;-52
2022/01/12 02:17:29;;;;;;;57.67;27.77;;;-5.10;99.90;;;;;;5033650;28;20534;-54
2022/01/12 02:36:22;;;;;;;52.95;26.95;;;-5.10;99.90;;;;;;5033498;28;20041;-59
2022/01/12 02:41:32;;;;;;;51.70;26.42;;;-5.00;99.90;;;;;;5033157;28;20107;-54
2022/01/12 02:54:50;;;;;;;57.60;29.33;;;-5.10;99.90;;;;;;5013013;28;20018;-53
2022/01/12 02:57:17;;;;;;;56.90;28.13;;;-5.10;99.90;;;;;;5012902;28;20037;-52
2022/01/12 03:02:42;;;;;;;77.78;32.38;;;-5.10;99.90;;;;;;5013023;28;20034;-54
2022/01/12 03:05:33;;;;;;;99.55;37.00;;;-5.20;99.90;;;;;;5013125;28;20021;-54
2022/01/12 03:08:08;;;;;;;85.15;36.45;;;-5.20;99.90;;;;;;5012836;28;20034;-55
2022/01/12 03:10:34;;;;;;;84.30;36.72;;;-5.30;99.90;;;;;;5012294;28;20029;-52
2022/01/12 03:12:59;;;;;;;82.55;33.85;;;-5.30;99.90;;;;;;5012208;28;20032;-54
2022/01/12 03:15:25;;;;;;;84.63;36.38;;;-5.40;99.90;;;;;;5011974;28;20038;-53
2022/01/12 03:17:50;;;;;;;82.38;40.25;;;-5.40;99.90;;;;;;5012290;28;20037;-53
2022/01/12 03:20:16;;;;;;;82.47;34.60;;;-5.40;99.90;;;;;;5012686;28;20026;-53
2022/01/12 03:22:43;;;;;;;80.13;35.17;;;-5.40;99.90;;;;;;5012454;28;20026;-54
2022/01/12 03:25:09;;;;;;;75.55;33.10;;;-5.40;99.90;;;;;;5012911;28;20072;-52
2022/01/12 03:27:34;;;;;;;75.47;32.35;;;-5.40;99.90;;;;;;5031948;28;20548;-53
2022/01/12 03:30:00;;;;;;;61.92;30.50;;;-5.40;99.90;;;;;;5032294;28;20022;-55
2022/01/12 03:32:43;;;;;;;61.33;29.35;;;-5.40;99.90;;;;;;5032132;28;20117;-55
2022/01/12 03:35:22;;;;;;;64.95;29.40;;;-5.20;99.90;;;;;;5032106;28;20029;-54
2022/01/12 03:38:19;;;;;;;57.08;28.60;;;-5.20;99.90;;;;;;5031811;28;20113;-54
2022/01/12 03:40:40;;;;;;;64.13;29.60;;;-5.10;99.90;;;;;;5031866;28;20065;-53
2022/01/12 03:43:05;;;;;;;65.57;29.42;;;-4.90;99.90;;;;;;5031987;28;20060;-54
2022/01/12 03:45:31;;;;;;;61.60;29.67;;;-5.00;99.90;;;;;;5031865;28;20036;-51
2022/01/12 03:47:57;;;;;;;59.35;29.73;;;-4.90;99.90;;;;;;5032234;28;20112;-54
2022/01/12 03:50:22;;;;;;;56.92;28.60;;;-4.90;99.90;;;;;;5032193;28;20068;-52
2022/01/12 03:52:48;;;;;;;60.97;30.08;;;-4.90;99.90;;;;;;5031881;28;20061;-53
2022/01/12 03:55:13;;;;;;;56.40;28.05;;;-4.90;99.90;;;;;;5031900;28;20044;-54
2022/01/12 03:57:39;;;;;;;57.15;29.45;;;-5.00;99.90;;;;;;5030445;28;20025;-53
2022/01/12 04:00:05;;;;;;;52.70;27.42;;;-4.90;99.90;;;;;;5032003;28;20026;-51
2022/01/12 04:02:33;;;;;;;55.95;28.17;;;-4.80;99.90;;;;;;5031758;28;20026;-55
2022/01/12 04:10:27;;;;;;;66.90;28.90;;;-4.70;99.90;;;;;;5031555;28;20040;-54
2022/01/12 04:12:53;;;;;;;59.75;26.17;;;-4.60;99.90;;;;;;5031733;28;20029;-52
2022/01/12 04:15:18;;;;;;;64.05;27.67;;;-4.50;99.90;;;;;;5031428;28;20103;-54
2022/01/12 04:17:44;;;;;;;54.10;26.15;;;-4.40;99.90;;;;;;5030283;28;20031;-54
2022/01/12 04:20:10;;;;;;;55.30;29.15;;;-4.30;99.90;;;;;;5031576;28;20116;-53
2022/01/12 04:25:22;;;;;;;50.10;24.67;;;-4.20;99.90;;;;;;5031613;28;20438;-55
2022/01/12 04:27:47;;;;;;;50.85;24.98;;;-4.10;99.90;;;;;;5031217;28;20116;-53
2022/01/12 04:30:13;;;;;;;50.10;25.80;;;-3.90;99.90;;;;;;5031609;28;20125;-52
2022/01/12 04:32:42;;;;;;;63.08;28.85;;;-3.80;99.90;;;;;;5031401;28;20034;-51
2022/01/12 04:35:08;;;;;;;65.55;32.17;;;-3.80;99.90;;;;;;5030036;28;20025;-53
2022/01/12 04:37:34;;;;;;;62.30;33.08;;;-3.70;99.90;;;;;;5031274;28;20018;-52
2022/01/12 04:39:59;;;;;;;70.32;34.60;;;-3.60;99.90;;;;;;5031356;28;20056;-52
2022/01/12 04:42:25;;;;;;;77.15;36.42;;;-3.50;99.90;;;;;;5031414;28;20045;-53
2022/01/12 04:44:59;;;;;;;82.30;38.20;;;-3.50;99.90;;;;;;5031387;28;20026;-53
2022/01/12 04:47:46;;;;;;;88.97;39.97;;;-3.50;99.90;;;;;;5031280;28;20124;-53
2022/01/12 04:50:11;;;;;;;91.28;37.90;;;-3.40;99.90;;;;;;5031266;28;20025;-55
2022/01/12 04:52:37;;;;;;;92.57;43.67;;;-3.30;99.90;;;;;;5031119;28;20141;-55
2022/01/12 04:55:03;;;;;;;76.35;36.38;;;-3.30;99.90;;;;;;5029931;28;20026;-53
2022/01/12 04:57:29;;;;;;;91.10;38.65;;;-3.30;99.90;;;;;;5030372;28;20038;-53
2022/01/12 05:00:08;;;;;;;80.60;39.47;;;-3.20;99.90;;;;;;5031019;28;20481;-53
2022/01/12 05:13:23;;;;;;;132.85;51.25;;;-3.30;99.90;;;;;;5031158;28;20075;-51
2022/01/12 05:15:49;;;;;;;117.78;45.30;;;-3.30;99.90;;;;;;5030758;28;20056;-53
2022/01/12 05:18:15;;;;;;;120.68;48.67;;;-3.20;99.90;;;;;;5031088;28;20021;-55
2022/01/12 05:20:40;;;;;;;181.50;51.83;;;-3.20;99.90;;;;;;5030918;28;20028;-56
2022/01/12 05:23:06;;;;;;;101.28;40.65;;;-3.20;99.90;;;;;;5031019;28;20021;-55
2022/01/12 05:25:32;;;;;;;79.00;37.28;;;-3.10;99.90;;;;;;5030631;28;20049;-51
2022/01/12 05:27:57;;;;;;;382.98;96.55;;;-3.00;99.90;;;;;;5031019;28;20112;-55
2022/01/12 05:30:23;;;;;;;123.72;55.28;;;-3.10;99.90;;;;;;5030935;28;20457;-54
2022/01/12 05:32:49;;;;;;;101.20;34.58;;;-3.10;99.90;;;;;;5030934;28;20487;-53
2022/01/12 05:35:17;;;;;;;89.38;35.13;;;-3.00;99.90;;;;;;5029573;28;20461;-53
2022/01/12 05:37:44;;;;;;;115.88;36.88;;;-3.10;99.90;;;;;;5030476;28;20036;-53
2022/01/12 05:40:11;;;;;;;226.68;40.92;;;-3.10;99.90;;;;;;5033008;28;20021;-53
2022/01/12 05:42:37;;;;;;;224.82;41.38;;;-3.20;99.90;;;;;;5034305;28;20549;-53
2022/01/12 05:45:06;;;;;;;164.48;42.45;;;-3.30;99.90;;;;;;5033023;28;20056;-51
2022/01/12 05:50:10;;;;;;;133.15;43.58;;;-3.40;99.90;;;;;;5034367;28;20041;-55
2022/01/12 05:52:36;;;;;;;184.40;45.40;;;-3.40;99.90;;;;;;5034008;28;20029;-54
2022/01/12 05:55:03;;;;;;;164.98;52.00;;;-3.40;99.90;;;;;;5034097;28;20051;-53
2022/01/12 05:57:32;;;;;;;87.90;39.85;;;-3.40;99.90;;;;;;5034000;28;20029;-55
2022/01/12 05:59:59;;;;;;;128.18;43.58;;;-3.30;99.90;;;;;;5032813;28;20030;-53
2022/01/12 06:02:25;;;;;;;252.80;43.38;;;-3.30;99.90;;;;;;5034003;28;20128;-53
2022/01/12 06:04:51;;;;;;;114.82;43.20;;;-3.50;99.90;;;;;;5033915;28;20025;-54
2022/01/12 06:07:17;;;;;;;146.13;48.97;;;-3.50;99.90;;;;;;5033688;28;20030;-52
2022/01/12 06:09:42;;;;;;;239.20;73.85;;;-3.50;99.90;;;;;;5032453;28;20028;-55
2022/01/12 06:12:09;;;;;;;366.67;62.13;;;-3.40;99.90;;;;;;5033699;28;20029;-55
2022/01/12 06:14:34;;;;;;;202.43;61.45;;;-3.30;99.90;;;;;;5033432;28;20426;-52
2022/01/12 06:17:00;;;;;;;164.55;59.53;;;-3.40;99.90;;;;;;5033740;28;20127;-52
2022/01/12 06:19:25;;;;;;;125.20;46.80;;;-3.30;99.90;;;;;;5033673;28;20021;-55
2022/01/12 06:21:51;;;;;;;242.55;47.33;;;-3.30;99.90;;;;;;5033227;28;20022;-55
2022/01/12 06:24:17;;;;;;;260.35;48.85;;;-3.50;99.90;;;;;;5030421;28;20036;-53
2022/01/12 06:26:44;;;;;;;182.07;43.05;;;-3.60;99.90;;;;;;5012537;28;20129;-52
2022/01/12 06:31:42;;;;;;;203.80;44.72;;;-3.70;99.90;;;;;;5012414;28;20037;-51
2022/01/12 06:34:07;;;;;;;147.75;49.10;;;-3.80;99.90;;;;;;5013329;28;20056;-53
2022/01/12 06:36:33;;;;;;;173.00;74.13;;;-3.80;99.90;;;;;;5013135;28;20474;-53
2022/01/12 06:38:59;;;;;;;151.48;61.72;;;-3.80;99.90;;;;;;5013260;28;20018;-52
2022/01/12 06:41:25;;;;;;;167.57;47.00;;;-3.80;99.90;;;;;;5013336;28;20018;-51
2022/01/12 06:43:51;;;;;;;121.78;49.70;;;-3.90;99.90;;;;;;5011670;28;20482;-52
2022/01/12 06:46:23;;;;;;;106.68;42.92;;;-4.00;99.90;;;;;;5031338;28;20120;-56
2022/01/12 06:48:49;;;;;;;125.30;57.38;;;-4.00;99.90;;;;;;5030173;28;20780;-54
2022/01/12 06:51:14;;;;;;;119.18;46.92;;;-3.90;99.90;;;;;;5030698;28;20112;-50
2022/01/12 06:53:40;;;;;;;131.68;42.90;;;-3.90;99.90;;;;;;5031188;28;20029;-54
2022/01/12 06:56:08;;;;;;;109.93;45.13;;;-3.80;99.90;;;;;;5032802;28;20045;-55
2022/01/12 06:58:34;;;;;;;116.55;47.30;;;-3.90;99.90;;;;;;5032515;28;20401;-54
2022/01/12 07:01:00;;;;;;;105.32;48.33;;;-3.80;99.90;;;;;;5032421;28;20464;-52
2022/01/12 07:03:26;;;;;;;96.38;49.58;;;-3.90;99.90;;;;;;5030603;28;20080;-51
2022/01/12 07:05:51;;;;;;;95.38;41.55;;;-3.80;99.90;;;;;;5031911;28;20040;-52
2022/01/12 07:08:17;;;;;;;93.20;42.35;;;-3.90;99.90;;;;;;5030063;28;20026;-53
2022/01/12 07:10:43;;;;;;;91.00;40.45;;;-4.00;99.90;;;;;;5031511;28;20091;-53
2022/01/12 07:13:11;;;;;;;89.05;42.47;;;-4.00;99.90;;;;;;5030410;28;20055;-51
2022/01/12 07:15:41;;;;;;;76.43;36.30;;;-4.00;99.90;;;;;;5029776;28;20332;-54
2022/01/12 07:18:07;;;;;;;92.88;36.30;;;-4.00;99.90;;;;;;5031380;28;20564;-54
2022/01/12 07:20:33;;;;;;;78.90;36.40;;;-4.10;99.90;;;;;;5032147;28;20028;-56
2022/01/12 07:22:59;;;;;;;352.92;97.90;;;-4.10;99.90;;;;;;5031303;28;20029;-53
2022/01/12 07:25:25;;;;;;;74.32;34.17;;;-4.10;99.90;;;;;;5032530;28;20360;-51
2022/01/12 07:27:51;;;;;;;70.70;33.90;;;-4.10;99.90;;;;;;5032289;28;20087;-52
2022/01/12 07:30:17;;;;;;;70.20;34.30;;;-4.10;99.90;;;;;;5032474;28;20117;-50
2022/01/12 07:32:43;;;;;;;76.22;36.25;;;-4.10;99.90;;;;;;5032216;28;20029;-55
2022/01/12 07:35:09;;;;;;;63.63;34.03;;;-4.10;99.90;;;;;;5032278;28;20479;-53
2022/01/12 07:37:35;;;;;;;71.15;33.35;;;-4.10;99.90;;;;;;5032148;28;20048;-51
2022/01/12 07:40:00;;;;;;;64.07;30.88;;;-4.20;99.90;;;;;;5032199;28;20026;-51
2022/01/12 07:42:26;;;;;;;72.70;30.67;;;-4.20;99.90;;;;;;5032133;28;20028;-56
2022/01/12 07:44:59;;;;;;;68.75;32.13;;;-4.20;99.90;;;;;;5031700;28;20017;-54
2022/01/12 07:47:26;;;;;;;62.08;31.80;;;-4.20;99.90;;;;;;5031584;28;20268;-53
2022/01/12 07:49:51;;;;;;;69.65;33.70;;;-4.20;99.90;;;;;;5030145;28;20037;-54
2022/01/12 07:52:17;;;;;;;68.65;31.70;;;-4.30;99.90;;;;;;5031815;28;20052;-55
2022/01/12 07:54:42;;;;;;;66.68;30.33;;;-4.20;99.90;;;;;;5031101;28;20068;-53
2022/01/12 07:57:08;;;;;;;57.42;28.90;;;-4.20;99.90;;;;;;5031329;28;20151;-56
2022/01/12 07:59:34;;;;;;;58.85;28.73;;;-4.20;99.90;;;;;;5031420;28;20464;-57
2022/01/12 08:01:59;;;;;;;66.18;33.35;;;-4.20;99.90;;;;;;5031363;28;20018;-55
2022/01/12 08:04:25;;;;;;;64.82;33.08;;;-4.10;99.90;;;;;;5030760;28;20021;-54
2022/01/12 08:06:51;;;;;;;67.80;32.85;;;-4.10;99.90;;;;;;5030363;28;20053;-56
2022/01/12 08:09:16;;;;;;;66.03;31.88;;;-3.90;99.90;;;;;;5030589;28;20084;-54
2022/01/12 08:11:42;;;;;;;67.30;35.30;;;-3.60;99.90;;;;;;5030203;28;20035;-53
2022/01/12 08:14:08;;;;;;;64.53;35.45;;;-3.40;99.90;;;;;;5028658;28;20049;-54
2022/01/12 08:16:33;;;;;;;68.90;31.92;;;-3.00;99.90;;;;;;5030024;28;20519;-56
2022/01/12 08:18:59;;;;;;;64.38;31.73;;;-2.80;99.90;;;;;;5030200;28;20036;-55
2022/01/12 08:21:27;;;;;;;59.30;31.58;;;-2.60;99.90;;;;;;5030230;28;20060;-54
2022/01/12 08:23:53;;;;;;;60.53;31.77;;;-2.40;99.90;;;;;;5028253;28;20493;-56
2022/01/12 08:26:18;;;;;;;65.03;32.88;;;-2.30;99.90;;;;;;5030125;28;20140;-55
2022/01/12 08:28:44;;;;;;;59.92;31.35;;;-2.20;99.90;;;;;;5029750;28;20041;-55
2022/01/12 08:31:10;;;;;;;65.13;34.03;;;-2.10;99.90;;;;;;5030211;28;20026;-54
2022/01/12 08:33:36;;;;;;;65.88;33.58;;;-2.00;99.90;;;;;;5030015;28;20029;-53
2022/01/12 08:36:01;;;;;;;65.90;32.33;;;-1.90;99.90;;;;;;5029816;28;20392;-54
2022/01/12 08:38:27;;;;;;;55.10;30.08;;;-2.00;99.90;;;;;;5029495;28;20056;-54
2022/01/12 08:40:53;;;;;;;62.20;32.50;;;-2.00;99.90;;;;;;5029520;28;20022;-55
2022/01/12 08:43:18;;;;;;;60.10;30.80;;;-1.90;99.90;;;;;;5029961;28;20101;-55
2022/01/12 08:45:44;;;;;;;66.65;33.25;;;-1.90;99.90;;;;;;5029663;28;20026;-53
2022/01/12 08:48:10;;;;;;;66.93;31.02;;;-1.90;99.90;;;;;;5030713;28;20041;-56
2022/01/12 08:50:36;;;;;;;56.33;30.20;;;-1.90;99.90;;;;;;5029978;28;20435;-53
2022/01/12 08:53:02;;;;;;;57.70;29.90;;;-2.00;99.90;;;;;;5029909;28;20126;-55
2022/01/12 08:55:28;;;;;;;69.68;30.67;;;-2.00;99.90;;;;;;5029609;28;20029;-55
2022/01/12 08:57:54;;;;;;;60.80;31.38;;;-2.20;99.90;;;;;;5029642;28;20075;-55
2022/01/12 09:00:20;;;;;;;65.85;31.83;;;-2.30;99.90;;;;;;5029901;28;20423;-55
2022/01/12 09:02:46;;;;;;;54.00;28.20;;;-2.20;99.90;;;;;;5028427;28;20036;-55
2022/01/12 09:05:13;;;;;;;61.53;31.85;;;-2.00;99.90;;;;;;5029685;28;20030;-54
2022/01/12 09:07:39;;;;;;;47.00;26.40;;;-2.00;99.90;;;;;;5029631;28;20040;-55
2022/01/12 09:10:06;;;;;;;51.72;28.17;;;-1.80;99.90;;;;;;5029749;28;20033;-53
2022/01/12 09:12:32;;;;;;;52.55;27.60;;;-1.70;99.90;;;;;;5028163;28;20029;-53
2022/01/12 09:14:58;;;;;;;49.42;26.85;;;-1.70;99.90;;;;;;5031384;28;20045;-56
2022/01/12 09:17:23;;;;;;;47.40;28.48;;;-1.70;99.90;;;;;;5033422;28;20048;-54
2022/01/12 09:19:51;;;;;;;54.05;29.17;;;-1.70;99.90;;;;;;5033353;28;20029;-55
2022/01/12 09:22:18;;;;;;;47.03;28.38;;;-1.60;99.90;;;;;;5033484;28;20024;-51
2022/01/12 09:24:44;;;;;;;48.15;26.88;;;-1.30;99.90;;;;;;5033323;28;20030;-55
2022/01/12 09:27:10;;;;;;;45.90;25.80;;;-1.20;99.90;;;;;;5033044;28;20044;-54
2022/01/12 09:29:37;;;;;;;48.33;26.65;;;-1.10;99.90;;;;;;5031769;28;20061;-53
2022/01/12 09:32:03;;;;;;;49.08;26.73;;;-1.00;99.90;;;;;;5033257;28;20021;-55
2022/01/12 09:34:28;;;;;;;52.63;26.58;;;-0.90;99.90;;;;;;5033179;28;20091;-55
2022/01/12 09:36:54;;;;;;;47.55;26.38;;;-0.80;99.90;;;;;;5033148;28;20025;-54
2022/01/12 09:39:20;;;;;;;39.55;23.67;;;-0.40;99.90;;;;;;5033136;28;20057;-54
2022/01/12 09:41:45;;;;;;;42.88;22.73;;;0.70;99.90;;;;;;5032779;28;20345;-53
2022/01/12 09:44:12;;;;;;;34.90;20.65;;;2.30;99.90;;;;;;5033030;28;20033;-51
2022/01/12 09:46:38;;;;;;;35.88;21.95;;;3.80;99.90;;;;;;5032842;28;20480;-56
2022/01/12 09:49:06;;;;;;;29.27;17.30;;;5.40;96.30;;;;;;5032503;28;20029;-56
2022/01/12 09:51:32;;;;;;;28.80;17.83;;;6.60;90.90;;;;;;5034062;28;20029;-53
2022/01/12 09:53:58;;;;;;;30.08;17.67;;;7.40;82.60;;;;;;5033433;28;20040;-55
2022/01/12 09:56:28;;;;;;;24.02;14.90;;;7.00;77.50;;;;;;5021360;28;20072;-56
2022/01/12 09:58:56;;;;;;;26.48;16.75;;;7.70;77.50;;;;;;5023080;28;20055;-53
2022/01/12 10:01:35;;;;;;;21.17;14.40;;;8.20;73.00;;;;;;5023571;28;20431;-56
2022/01/12 10:04:16;;;;;;;22.77;15.07;;;8.90;69.10;;;;;;5023829;28;20120;-54
2022/01/12 10:06:48;;;;;;;25.08;16.15;;;9.70;65.60;;;;;;5023093;28;20878;-56
2022/01/12 10:09:15;;;;;;;47.63;36.78;;;9.80;63.70;;;;;;5023148;28;20025;-55
2022/01/12 10:11:50;;;;;;;19.88;12.52;;;7.00;67.10;;;;;;5021555;28;20025;-54
2022/01/12 10:14:16;;;;;;;20.77;13.05;;;8.50;64.70;;;;;;5021599;28;20366;-52
2022/01/12 10:16:56;;;;;;;16.48;12.98;;;9.60;63.10;;;;;;5022171;28;20056;-55
2022/01/12 10:19:30;;;;;;;18.80;11.82;;;9.60;60.80;;;;;;5021762;28;20049;-55
2022/01/12 10:21:58;;;;;;;20.00;13.05;;;9.90;58.30;;;;;;5016092;28;20026;-52
2022/01/12 10:24:26;;;;;;;25.85;16.63;;;9.10;59.00;;;;;;5022608;28;20056;-54
2022/01/12 10:26:52;;;;;;;21.08;14.93;;;6.10;64.00;;;;;;5022403;28;20036;-53
2022/01/12 10:29:22;;;;;;;41.10;29.10;;;6.10;69.00;;;;;;5022370;28;20527;-56
2022/01/12 10:32:04;;;;;;;26.20;13.38;;;6.80;68.30;;;;;;5003280;28;20044;-54
2022/01/12 10:34:36;;;;;;;18.52;11.90;;;9.10;62.30;;;;;;5012244;28;20034;-56
2022/01/12 10:37:12;;;;;;;17.93;12.07;;;10.50;58.40;;;;;;5020119;28;20041;-54
2022/01/12 10:39:43;;;;;;;17.00;12.30;;;10.90;56.60;;;;;;5021414;28;20291;-54
2022/01/12 10:42:12;;;;;;;23.33;16.63;;;10.80;55.00;;;;;;5021718;28;20021;-53
2022/01/12 10:44:49;;;;;;;17.88;12.27;;;9.60;57.20;;;;;;5021906;28;20021;-55
2022/01/12 10:47:21;;;;;;;15.18;10.60;;;10.00;56.50;;;;;;5021075;28;20036;-55
2022/01/12 10:49:58;;;;;;;34.60;18.95;;;11.30;53.60;;;;;;5021078;28;20074;-54
2022/01/12 10:52:27;;;;;;;16.23;12.18;;;9.10;57.70;;;;;;5025307;28;20380;-55
2022/01/12 10:54:54;;;;;;;16.58;11.80;;;10.60;55.70;;;;;;5032843;28;20045;-56
2022/01/12 10:57:28;;;;;;;16.42;11.60;;;11.00;54.40;;;;;;5030816;28;20033;-52
2022/01/12 11:00:06;;;;;;;14.85;10.85;;;11.20;53.40;;;;;;5031389;28;20030;-55
2022/01/12 11:02:33;;;;;;;20.55;11.95;;;11.80;52.30;;;;;;5031982;28;20168;-54
2022/01/12 11:05:00;;;;;;;15.63;11.18;;;11.40;49.80;;;;;;5032605;28;20017;-56
2022/01/12 11:07:26;;;;;;;14.70;10.65;;;12.20;50.60;;;;;;5032783;28;20030;-54
2022/01/12 11:09:56;;;;;;;17.58;11.70;;;12.50;49.20;;;;;;5032461;28;20055;-55
2022/01/12 11:12:22;;;;;;;15.93;11.50;;;12.00;50.20;;;;;;5032731;28;20108;-53
2022/01/12 11:14:48;;;;;;;18.10;10.65;;;10.70;54.00;;;;;;5032196;28;20388;-55
2022/01/12 11:17:14;;;;;;;16.85;11.27;;;11.80;50.50;;;;;;5032526;28;20091;-55
2022/01/12 11:19:52;;;;;;;13.57;10.05;;;11.70;49.50;;;;;;5032194;28;20057;-55
2022/01/12 11:22:27;;;;;;;14.70;10.60;;;12.00;50.50;;;;;;5032598;28;20468;-58
2022/01/12 11:24:54;;;;;;;14.75;11.73;;;11.70;49.70;;;;;;5032159;28;20376;-55
2022/01/12 11:27:23;;;;;;;12.80;9.95;;;12.10;49.00;;;;;;5032281;28;20112;-57
2022/01/12 11:29:49;;;;;;;14.73;11.40;;;11.20;48.90;;;;;;5031228;28;20028;-58
2022/01/12 11:32:22;;;;;;;14.23;10.57;;;11.20;50.90;;;;;;5031537;28;20029;-58
2022/01/12 11:35:03;;;;;;;;;;;12.70;47.70;;;;;;5031636;28;20155;-57
2022/01/12 11:37:29;;;;;;;12.85;10.00;;;13.30;46.60;;;;;;5031362;28;20447;-58
2022/01/12 11:40:07;;;;;;;12.02;9.70;;;13.20;46.60;;;;;;5030090;28;20030;-58
2022/01/12 11:42:36;;;;;;;14.75;10.50;;;14.30;45.40;;;;;;5031781;28;20114;-56
2022/01/12 11:45:03;;;;;;;11.65;9.32;;;13.70;45.70;;;;;;5030464;28;20068;-55
2022/01/12 11:47:31;;;;;;;14.68;9.52;;;14.40;44.10;;;;;;5030661;28;20033;-56
2022/01/12 11:49:57;;;;;;;14.05;10.00;;;13.80;44.00;;;;;;5030812;28;20036;-54
2022/01/12 11:52:30;;;;;;;13.60;9.55;;;11.10;46.70;;;;;;5030554;28;20040;-54
2022/01/12 11:55:08;;;;;;;11.40;8.63;;;10.80;47.50;;;;;;5030603;28;20033;-56
2022/01/12 11:57:41;;;;;;;11.98;8.80;;;11.60;47.30;;;;;;5030168;28;20026;-54
2022/01/12 12:00:16;;;;;;;12.43;8.25;;;12.10;45.80;;;;;;5030753;28;20345;-54
2022/01/12 12:02:45;;;;;;;12.77;8.23;;;10.60;47.00;;;;;;5030392;28;20138;-58
2022/01/12 12:05:17;;;;;;;11.73;10.23;;;8.60;50.20;;;;;;5030450;28;20053;-56
2022/01/12 12:07:45;;;;;;;12.45;8.70;;;7.40;53.60;;;;;;5030124;28;20290;-56
2022/01/12 12:10:14;;;;;;;11.82;9.02;;;7.50;55.70;;;;;;5029565;28;20032;-55
2022/01/12 12:12:40;;;;;;;14.10;9.38;;;7.90;56.10;;;;;;5030158;28;20389;-54
2022/01/12 12:15:07;;;;;;;13.63;8.55;;;8.20;55.10;;;;;;5030236;28;20042;-56
2022/01/12 12:17:35;;;;;;;12.90;8.18;;;9.70;50.90;;;;;;5029862;28;20021;-57
2022/01/12 12:20:01;;;;;;;12.32;9.13;;;11.00;48.90;;;;;;5030298;28;20021;-55
2022/01/12 12:22:28;;;;;;;13.65;8.38;;;11.80;47.10;;;;;;5029616;28;20113;-54
2022/01/12 12:25:02;;;;;;;11.93;8.40;;;12.60;46.00;;;;;;5030273;28;20033;-59
2022/01/12 12:27:29;;;;;;;12.50;8.60;;;12.00;45.20;;;;;;5029963;28;20087;-55
2022/01/12 12:29:55;;;;;;;10.68;7.10;;;13.20;44.40;;;;;;5030237;28;20064;-59
2022/01/12 12:32:39;;;;;;;11.13;8.52;;;14.00;43.40;;;;;;5030075;28;20032;-54
2022/01/12 12:35:14;;;;;;;11.95;7.55;;;14.80;41.20;;;;;;5030274;28;20185;-57
2022/01/12 12:37:43;;;;;;;9.70;7.88;;;14.30;41.50;;;;;;5029510;28;20037;-53
2022/01/12 12:40:13;;;;;;;9.05;6.95;;;14.80;41.10;;;;;;5030071;28;20057;-54
2022/01/12 12:42:39;;;;;;;11.88;8.13;;;14.90;40.30;;;;;;5029778;28;20075;-54
2022/01/12 12:45:05;;;;;;;8.00;7.03;;;13.80;40.40;;;;;;5030417;28;20504;-57
2022/01/12 12:47:32;;;;;;;12.70;7.65;;;12.20;44.10;;;;;;5029862;28;20124;-56
2022/01/12 12:50:01;;;;;;;8.88;7.28;;;11.80;43.40;;;;;;5034015;28;20021;-54
2022/01/12 12:52:37;;;;;;;11.68;8.05;;;12.40;44.10;;;;;;5033850;28;20391;-57
2022/01/12 12:55:16;;;;;;;13.15;7.78;;;13.60;42.30;;;;;;5034040;28;20140;-54
2022/01/12 12:57:50;;;;;;;11.02;8.02;;;12.50;42.30;;;;;;5033783;28;20053;-58
2022/01/12 13:00:21;;;;;;;10.65;7.60;;;11.50;44.20;;;;;;5034174;28;20025;-56
2022/01/12 13:02:50;;;;;;;10.27;7.38;;;11.70;45.50;;;;;;5033632;28;20504;-58
2022/01/12 13:05:20;;;;;;;9.00;7.38;;;11.50;45.10;;;;;;5033916;28;20116;-57
2022/01/12 13:07:47;;;;;;;7.95;6.72;;;11.10;45.00;;;;;;5033354;28;20034;-57
2022/01/12 13:10:15;;;;;;;8.30;6.75;;;10.60;46.30;;;;;;5033813;28;20389;-57
2022/01/12 13:12:46;;;;;;;9.48;6.72;;;10.60;47.20;;;;;;5033686;28;20021;-56
2022/01/12 13:15:37;;;;;;;11.43;8.02;;;10.90;46.40;;;;;;5033606;28;20080;-56
2022/01/12 13:18:08;;;;;;;9.45;7.15;;;11.50;46.20;;;;;;5033244;28;20049;-57
2022/01/12 13:23:23;;;;;;;10.02;6.63;;;13.80;41.10;;;;;;5033683;28;20083;-57
2022/01/12 13:25:53;;;;;;;13.13;9.75;;;13.20;42.10;;;;;;5033369;28;20037;-56
2022/01/12 13:28:19;;;;;;;16.92;11.93;;;12.90;43.30;;;;;;5031948;28;20468;-56
2022/01/12 13:30:57;;;;;;;14.30;11.80;;;10.40;47.10;;;;;;5033359;28;20029;-57
2022/01/12 13:33:27;;;;;;;17.75;14.02;;;9.20;51.10;;;;;;5031865;28;20041;-54
2022/01/12 13:35:54;;;;;;;17.25;13.23;;;7.40;55.60;;;;;;5033073;28;20151;-54
2022/01/12 13:38:29;;;;;;;19.73;14.02;;;7.10;57.90;;;;;;5033051;28;20021;-57
2022/01/12 13:40:55;;;;;;;17.75;13.90;;;6.20;60.20;;;;;;5033252;28;20104;-57
2022/01/12 13:43:23;;;;;;;22.55;15.88;;;5.80;62.60;;;;;;5032917;28;20123;-58
2022/01/12 13:45:57;;;;;;;18.02;12.98;;;7.30;60.80;;;;;;5033091;28;20384;-57
2022/01/12 13:48:29;;;;;;;16.10;12.10;;;8.10;57.30;;;;;;5033012;28;20396;-58
2022/01/12 13:50:55;;;;;;;16.95;12.60;;;9.00;54.60;;;;;;5033032;28;20416;-57
2022/01/12 13:53:36;;;;;;;16.63;13.20;;;8.90;54.70;;;;;;5032962;28;20075;-55
2022/01/12 13:56:03;;;;;;;22.75;15.75;;;9.20;53.90;;;;;;5032578;28;20026;-57